Time;durP1;ratioP1;P1;durP2;ratioP2;P2;SDS_P1;SDS_P2;PMS_P1;PMS_P2;Temp;Humidity;BMP_temperature;BMP_pressure;BME280_temperature;BME280_humidity;BME280_pressure;Samples;Min_cycle;Max_cycle;Signal;HPM_P1;HPM_P2
2023/05/04 00:00:48;;;;;;;10.17;7.03;;;8.50;98.20;;;;;;5004236;28;20460;-71
2023/05/04 00:03:14;;;;;;;8.90;7.40;;;8.50;97.10;;;;;;5004626;28;20461;-72
2023/05/04 00:05:41;;;;;;;11.00;7.40;;;8.30;96.90;;;;;;4996215;28;20455;-71
2023/05/04 00:08:10;;;;;;;9.13;7.70;;;8.20;97.00;;;;;;5010058;28;20461;-72
2023/05/04 00:10:37;;;;;;;9.50;8.50;;;8.20;98.90;;;;;;5000327;28;20502;-71
2023/05/04 00:13:04;;;;;;;8.10;6.73;;;8.10;99.20;;;;;;5003120;28;20810;-71
2023/05/04 00:15:30;;;;;;;10.67;7.77;;;8.10;99.30;;;;;;4996726;28;21029;-71
2023/05/04 00:17:57;;;;;;;11.53;7.87;;;8.10;98.40;;;;;;5000108;28;20468;-71
2023/05/04 00:20:24;;;;;;;9.33;8.00;;;8.20;97.40;;;;;;5013500;28;20457;-71
2023/05/04 00:22:51;;;;;;;8.23;7.40;;;8.00;97.30;;;;;;5005447;28;20465;-71
2023/05/04 00:25:19;;;;;;;9.37;8.43;;;7.90;98.20;;;;;;4998772;28;20861;-71
2023/05/04 00:27:46;;;;;;;11.60;7.60;;;7.80;99.50;;;;;;5004004;28;20469;-71
2023/05/04 00:30:14;;;;;;;10.50;8.87;;;7.80;98.70;;;;;;4995396;28;20465;-71
2023/05/04 00:32:40;;;;;;;9.23;8.33;;;7.70;99.40;;;;;;4998833;28;20457;-71
2023/05/04 00:35:08;;;;;;;10.27;8.20;;;7.80;99.90;;;;;;5002831;28;20502;-71
2023/05/04 00:37:35;;;;;;;11.73;9.10;;;7.80;99.90;;;;;;5006307;28;20492;-71
2023/05/04 00:40:02;;;;;;;10.77;8.83;;;7.70;99.90;;;;;;5010926;28;20571;-72
2023/05/04 00:42:30;;;;;;;11.17;8.10;;;7.60;99.90;;;;;;5006675;28;20459;-71
2023/05/04 00:44:57;;;;;;;11.90;8.90;;;7.50;99.90;;;;;;5000367;28;20488;-71
2023/05/04 00:47:24;;;;;;;11.70;8.57;;;7.50;99.60;;;;;;4999603;28;20468;-71
2023/05/04 00:49:52;;;;;;;9.03;8.13;;;7.50;99.40;;;;;;4994910;28;20481;-73
2023/05/04 00:52:20;;;;;;;14.93;8.77;;;7.40;99.30;;;;;;4999334;28;20466;-71
2023/05/04 00:54:47;;;;;;;9.63;7.20;;;7.50;99.40;;;;;;5000510;28;21063;-72
2023/05/04 00:57:16;;;;;;;11.83;8.77;;;7.50;99.50;;;;;;5001544;28;21035;-71
2023/05/04 00:59:46;;;;;;;10.30;8.37;;;7.50;99.20;;;;;;5006294;28;20983;-71
2023/05/04 01:02:13;;;;;;;9.53;7.63;;;7.50;99.10;;;;;;5003550;28;20461;-71
2023/05/04 01:04:40;;;;;;;12.10;8.77;;;7.40;99.10;;;;;;4997246;28;20478;-73
2023/05/04 01:07:16;;;;;;;10.50;8.70;;;7.40;99.90;;;;;;5000219;28;20472;-71
2023/05/04 01:09:46;;;;;;;12.00;9.13;;;7.40;99.90;;;;;;5003974;28;20470;-72
2023/05/04 01:12:20;;;;;;;11.00;8.20;;;7.40;99.90;;;;;;5010347;28;20474;-71
2023/05/04 01:14:49;;;;;;;8.90;8.00;;;7.30;99.90;;;;;;5006624;28;20496;-71
2023/05/04 01:17:16;;;;;;;11.10;8.80;;;7.30;99.90;;;;;;5009428;28;20467;-71
2023/05/04 01:19:43;;;;;;;10.27;8.40;;;7.20;99.90;;;;;;5005231;28;20467;-71
2023/05/04 01:22:11;;;;;;;9.37;7.60;;;7.20;99.90;;;;;;5011254;28;20525;-71
2023/05/04 01:24:38;;;;;;;12.10;8.90;;;7.20;99.90;;;;;;4996047;28;20481;-72
2023/05/04 01:27:09;;;;;;;9.03;8.13;;;7.10;99.90;;;;;;5006296;28;20828;-72
2023/05/04 01:29:42;;;;;;;8.60;7.70;;;7.10;99.90;;;;;;5004952;28;20476;-71
2023/05/04 01:32:11;;;;;;;11.10;8.47;;;7.10;99.90;;;;;;5003328;28;20836;-71
2023/05/04 01:34:40;;;;;;;10.50;8.50;;;7.10;99.90;;;;;;5003276;28;20492;-71
2023/05/04 01:37:08;;;;;;;10.30;9.27;;;6.90;99.90;;;;;;5000350;28;20466;-71
2023/05/04 01:39:36;;;;;;;12.30;9.30;;;6.90;99.90;;;;;;5004490;28;20836;-71
2023/05/04 01:42:03;;;;;;;12.80;9.97;;;6.90;99.90;;;;;;5007922;28;21082;-72
2023/05/04 01:44:30;;;;;;;11.50;8.60;;;7.00;99.90;;;;;;5001803;28;20844;-71
2023/05/04 01:46:58;;;;;;;13.87;10.37;;;7.00;99.90;;;;;;5001756;28;21302;-71
2023/05/04 01:49:25;;;;;;;10.17;8.27;;;7.10;99.90;;;;;;5007036;28;20468;-71
2023/05/04 01:51:52;;;;;;;9.33;8.33;;;7.20;99.90;;;;;;5008493;28;20476;-71
2023/05/04 01:54:19;;;;;;;11.57;8.90;;;7.20;99.90;;;;;;5003476;28;20483;-71
2023/05/04 01:56:47;;;;;;;11.70;8.00;;;7.30;99.90;;;;;;5005681;28;20480;-71
2023/05/04 01:59:14;;;;;;;8.90;7.77;;;7.30;99.50;;;;;;5002043;28;20819;-71
2023/05/04 02:01:41;;;;;;;10.00;7.60;;;7.30;99.10;;;;;;5002270;28;20487;-71
2023/05/04 02:04:08;;;;;;;11.27;8.90;;;7.40;98.80;;;;;;5003467;28;20470;-71
2023/05/04 02:06:35;;;;;;;11.83;9.43;;;7.40;98.60;;;;;;5005279;28;20452;-71
2023/05/04 02:09:02;;;;;;;11.03;7.53;;;7.30;99.00;;;;;;5004584;28;20461;-71
2023/05/04 02:11:29;;;;;;;8.93;7.93;;;7.30;99.50;;;;;;5001315;28;21056;-71
2023/05/04 02:13:58;;;;;;;8.80;7.90;;;7.30;99.00;;;;;;4993269;28;20496;-72
2023/05/04 02:16:24;;;;;;;10.10;9.10;;;7.30;99.40;;;;;;5008766;28;20717;-71
2023/05/04 02:18:52;;;;;;;10.07;8.60;;;7.20;99.40;;;;;;5002524;28;20490;-72
2023/05/04 02:21:18;;;;;;;10.20;9.13;;;7.10;99.30;;;;;;5000047;28;20905;-72
2023/05/04 02:23:45;;;;;;;9.63;8.63;;;7.00;99.60;;;;;;5007426;28;20485;-72
2023/05/04 02:26:12;;;;;;;11.60;8.97;;;7.00;99.50;;;;;;5020452;28;20524;-71
2023/05/04 02:28:39;;;;;;;14.20;10.20;;;6.90;99.70;;;;;;5020869;28;20460;-74
2023/05/04 02:31:07;;;;;;;10.13;9.23;;;6.90;99.90;;;;;;5016925;28;20450;-74
2023/05/04 02:33:34;;;;;;;12.27;8.73;;;6.80;99.90;;;;;;5019602;28;20486;-70
2023/05/04 02:36:01;;;;;;;10.63;8.40;;;6.80;99.90;;;;;;5026514;28;20487;-71
2023/05/04 02:38:27;;;;;;;10.93;8.97;;;6.80;99.90;;;;;;5020014;28;20604;-71
2023/05/04 02:40:54;;;;;;;11.77;9.20;;;6.80;99.90;;;;;;5024275;28;20500;-72
2023/05/04 02:43:21;;;;;;;11.23;9.50;;;6.70;99.90;;;;;;5013355;28;20538;-71
2023/05/04 02:45:48;;;;;;;10.63;9.27;;;6.60;99.90;;;;;;5015155;28;20536;-72
2023/05/04 02:48:16;;;;;;;12.23;9.00;;;6.60;99.90;;;;;;5016992;28;20491;-72
2023/05/04 02:50:45;;;;;;;11.53;8.77;;;6.50;99.90;;;;;;5022044;28;20504;-72
2023/05/04 02:53:12;;;;;;;11.07;9.87;;;6.50;99.90;;;;;;5012759;28;20462;-71
2023/05/04 02:55:39;;;;;;;10.37;9.07;;;6.60;99.90;;;;;;5013650;28;20521;-73
2023/05/04 02:58:06;;;;;;;11.13;9.10;;;6.40;99.90;;;;;;5016096;28;20493;-72
2023/05/04 03:00:33;;;;;;;11.03;9.30;;;6.30;99.90;;;;;;5018572;28;20466;-71
2023/05/04 03:03:00;;;;;;;13.10;10.03;;;6.40;99.90;;;;;;5011487;28;20458;-72
2023/05/04 03:05:28;;;;;;;13.30;9.23;;;6.50;99.90;;;;;;5006358;28;20509;-71
2023/05/04 03:07:55;;;;;;;13.57;9.87;;;6.60;99.90;;;;;;4997006;28;20459;-71
2023/05/04 03:10:22;;;;;;;11.47;9.20;;;6.50;99.90;;;;;;5007454;28;20496;-73
2023/05/04 03:12:49;;;;;;;10.40;8.37;;;6.40;99.90;;;;;;5003165;28;20474;-73
2023/05/04 03:15:16;;;;;;;12.23;10.70;;;6.40;99.90;;;;;;5012919;28;21021;-73
2023/05/04 03:17:43;;;;;;;12.27;10.43;;;6.40;99.90;;;;;;5006084;28;20461;-73
2023/05/04 03:20:12;;;;;;;13.10;10.70;;;6.30;99.90;;;;;;5002434;28;20552;-73
2023/05/04 03:22:40;;;;;;;14.60;9.93;;;6.20;99.90;;;;;;4999466;28;20887;-72
2023/05/04 03:25:08;;;;;;;14.67;10.40;;;6.20;99.90;;;;;;4997713;28;20480;-72
2023/05/04 03:27:35;;;;;;;12.50;10.00;;;6.20;99.90;;;;;;5003726;28;21216;-74
2023/05/04 03:30:02;;;;;;;11.53;10.33;;;6.20;99.90;;;;;;5000597;28;20961;-72
2023/05/04 03:32:28;;;;;;;12.10;10.80;;;6.20;99.90;;;;;;5003499;28;20468;-72
2023/05/04 03:34:55;;;;;;;15.67;10.53;;;6.30;99.90;;;;;;5000446;28;21457;-72
2023/05/04 03:37:23;;;;;;;14.90;11.13;;;6.40;99.90;;;;;;5006975;28;20450;-72
2023/05/04 03:39:51;;;;;;;14.03;12.37;;;6.40;99.90;;;;;;5001190;28;20477;-72
2023/05/04 03:42:18;;;;;;;13.83;11.33;;;6.30;99.90;;;;;;4998656;28;20463;-71
2023/05/04 03:44:46;;;;;;;13.97;11.77;;;6.40;99.90;;;;;;5000807;28;20999;-71
2023/05/04 03:47:13;;;;;;;13.50;11.60;;;6.50;99.90;;;;;;5001368;28;20468;-72
2023/05/04 03:49:40;;;;;;;12.83;9.73;;;6.30;99.90;;;;;;5011133;28;20455;-71
2023/05/04 03:52:06;;;;;;;13.10;10.47;;;6.30;99.90;;;;;;4996722;28;20483;-72
2023/05/04 03:54:33;;;;;;;14.53;10.53;;;6.30;99.90;;;;;;5001487;28;20486;-71
2023/05/04 03:57:03;;;;;;;15.23;10.07;;;6.40;99.90;;;;;;5002749;28;20488;-72
2023/05/04 03:59:30;;;;;;;17.57;13.07;;;6.40;99.90;;;;;;4999105;28;20456;-73
2023/05/04 04:01:57;;;;;;;12.20;9.60;;;6.40;99.90;;;;;;5003930;28;20461;-71
2023/05/04 04:04:23;;;;;;;12.60;11.40;;;6.40;99.90;;;;;;4997390;28;20569;-74
2023/05/04 04:06:50;;;;;;;11.17;9.13;;;6.50;99.90;;;;;;5002830;28;20460;-72
2023/05/04 04:09:17;;;;;;;10.30;9.20;;;6.60;99.90;;;;;;5006156;28;20470;-74
2023/05/04 04:11:44;;;;;;;12.93;10.13;;;6.50;99.90;;;;;;5002554;28;20537;-72
2023/05/04 04:14:12;;;;;;;13.00;9.90;;;6.40;99.90;;;;;;5002414;28;20470;-73
2023/05/04 04:16:39;;;;;;;15.10;10.20;;;6.30;99.90;;;;;;5006730;28;20480;-73
2023/05/04 04:19:06;;;;;;;12.43;11.07;;;6.10;99.90;;;;;;5003167;28;20497;-73
2023/05/04 04:21:33;;;;;;;15.27;10.37;;;6.10;99.90;;;;;;5009257;28;20469;-73
2023/05/04 04:24:00;;;;;;;11.90;10.67;;;6.10;99.90;;;;;;5005240;28;20479;-73
2023/05/04 04:26:27;;;;;;;14.10;11.10;;;6.20;99.90;;;;;;5000437;28;20572;-73
2023/05/04 04:28:54;;;;;;;15.73;11.13;;;6.30;99.90;;;;;;4999747;28;20990;-72
2023/05/04 04:31:22;;;;;;;16.83;11.40;;;6.40;99.90;;;;;;5001038;28;20456;-73
2023/05/04 04:33:50;;;;;;;12.97;11.07;;;6.40;99.90;;;;;;5003022;28;20552;-74
2023/05/04 04:36:17;;;;;;;16.60;11.90;;;6.40;99.90;;;;;;4998918;28;21198;-72
2023/05/04 04:38:44;;;;;;;14.67;11.77;;;6.30;99.90;;;;;;5000372;28;20851;-72
2023/05/04 04:41:11;;;;;;;11.57;10.20;;;6.40;99.90;;;;;;4997897;28;20464;-72
2023/05/04 04:43:38;;;;;;;17.30;11.60;;;6.30;99.90;;;;;;4994391;28;20479;-73
2023/05/04 04:46:05;;;;;;;12.30;10.97;;;6.20;99.90;;;;;;5001337;28;20550;-70
2023/05/04 04:48:34;;;;;;;13.70;10.40;;;6.40;99.90;;;;;;4996803;28;20473;-71
2023/05/04 04:51:00;;;;;;;14.60;10.77;;;6.40;99.90;;;;;;4993655;28;20843;-70
2023/05/04 04:53:27;;;;;;;13.13;10.80;;;6.50;99.90;;;;;;4992582;28;20492;-69
2023/05/04 04:55:54;;;;;;;16.40;10.77;;;6.60;99.90;;;;;;4998822;28;20473;-69
2023/05/04 04:58:21;;;;;;;15.07;10.90;;;6.70;99.90;;;;;;4996559;28;20519;-70
2023/05/04 05:00:49;;;;;;;14.90;11.33;;;6.70;99.90;;;;;;4996771;28;20463;-70
2023/05/04 05:03:16;;;;;;;14.70;11.20;;;6.70;99.90;;;;;;5000143;28;20547;-70
2023/05/04 05:05:44;;;;;;;15.67;12.17;;;6.80;99.90;;;;;;4995132;28;20466;-68
2023/05/04 05:08:11;;;;;;;13.37;11.93;;;6.90;99.90;;;;;;4989806;28;20521;-71
2023/05/04 05:10:38;;;;;;;14.13;12.57;;;6.90;99.90;;;;;;4991547;28;21100;-70
2023/05/04 05:13:06;;;;;;;11.40;10.10;;;6.90;99.90;;;;;;4992870;28;20823;-70
2023/05/04 05:15:33;;;;;;;12.23;10.47;;;7.00;99.90;;;;;;4991484;28;20469;-71
2023/05/04 05:18:00;;;;;;;11.90;10.63;;;7.20;99.90;;;;;;4991821;28;20470;-71
2023/05/04 05:20:27;;;;;;;10.30;9.20;;;7.20;99.90;;;;;;4990341;28;21065;-71
2023/05/04 05:22:55;;;;;;;12.43;10.50;;;7.20;99.90;;;;;;4987262;28;20823;-71
2023/05/04 05:25:22;;;;;;;12.67;9.70;;;7.30;99.90;;;;;;4987942;28;20485;-71
2023/05/04 05:27:49;;;;;;;13.80;11.13;;;7.30;99.90;;;;;;5000514;28;20508;-71
2023/05/04 05:30:16;;;;;;;12.43;10.63;;;7.40;99.90;;;;;;4997798;28;20488;-71
2023/05/04 05:32:43;;;;;;;12.80;11.00;;;7.60;99.90;;;;;;4991922;28;20470;-71
2023/05/04 05:35:11;;;;;;;11.93;10.43;;;7.80;99.90;;;;;;4994622;28;20475;-72
2023/05/04 05:37:38;;;;;;;14.03;10.70;;;7.80;99.90;;;;;;4989619;28;20486;-71
2023/05/04 05:40:08;;;;;;;13.00;11.70;;;8.00;99.90;;;;;;4998372;28;20465;-71
2023/05/04 05:42:35;;;;;;;15.17;11.80;;;8.10;99.90;;;;;;4995948;28;20474;-71
2023/05/04 05:45:03;;;;;;;14.93;12.17;;;8.30;99.90;;;;;;4994352;28;21011;-72
2023/05/04 05:47:30;;;;;;;21.93;15.10;;;8.50;99.30;;;;;;5024478;28;21030;-71
2023/05/04 05:49:57;;;;;;;12.30;11.00;;;8.70;98.70;;;;;;5018987;28;20457;-70
2023/05/04 05:52:24;;;;;;;11.70;10.57;;;8.70;98.80;;;;;;5010161;28;20453;-71
2023/05/04 05:54:50;;;;;;;14.40;11.20;;;8.80;99.30;;;;;;5010842;28;20474;-71
2023/05/04 05:57:19;;;;;;;15.37;12.53;;;8.90;98.80;;;;;;5011699;28;21031;-73
2023/05/04 05:59:46;;;;;;;12.90;11.27;;;9.10;98.80;;;;;;5013832;28;20454;-71
2023/05/04 06:02:13;;;;;;;14.60;12.33;;;9.10;98.20;;;;;;5014758;28;20557;-70
2023/05/04 06:04:40;;;;;;;12.83;11.30;;;9.30;98.70;;;;;;5015009;28;20480;-70
2023/05/04 06:07:07;;;;;;;12.03;10.83;;;9.40;98.40;;;;;;5015626;28;20452;-70
2023/05/04 06:09:35;;;;;;;15.10;12.60;;;9.50;97.40;;;;;;5015571;28;20446;-69
2023/05/04 06:12:03;;;;;;;13.20;11.30;;;9.60;97.50;;;;;;5014953;28;20466;-71
2023/05/04 06:14:31;;;;;;;16.97;12.83;;;9.70;97.70;;;;;;5014539;28;20977;-69
2023/05/04 06:16:58;;;;;;;13.57;11.87;;;9.80;97.50;;;;;;5014877;28;20480;-70
2023/05/04 06:19:25;;;;;;;17.17;12.30;;;9.90;97.30;;;;;;5013339;28;20957;-72
2023/05/04 06:21:52;;;;;;;13.87;12.37;;;10.10;96.60;;;;;;5012285;28;20457;-71
2023/05/04 06:24:20;;;;;;;14.07;12.57;;;10.40;96.30;;;;;;5011471;28;20469;-71
2023/05/04 06:26:47;;;;;;;13.83;12.40;;;10.50;96.30;;;;;;5012699;28;20458;-70
2023/05/04 06:29:17;;;;;;;13.50;12.20;;;10.70;94.80;;;;;;5012658;28;20553;-74
2023/05/04 06:31:46;;;;;;;12.67;11.17;;;10.90;94.80;;;;;;5012404;28;20449;-72
2023/05/04 06:34:13;;;;;;;13.40;12.00;;;11.00;94.70;;;;;;5010832;28;20475;-72
2023/05/04 06:36:39;;;;;;;13.33;11.50;;;11.20;93.90;;;;;;5012424;28;20512;-72
2023/05/04 06:39:06;;;;;;;16.10;12.80;;;11.30;94.20;;;;;;5012116;28;20477;-71
2023/05/04 06:41:35;;;;;;;14.53;13.00;;;11.40;93.40;;;;;;5012400;28;20494;-71
2023/05/04 06:44:03;;;;;;;15.80;12.37;;;11.50;93.10;;;;;;5010997;28;20498;-73
2023/05/04 06:46:30;;;;;;;13.90;12.50;;;11.60;92.90;;;;;;5012320;28;20500;-71
2023/05/04 06:49:02;;;;;;;17.30;13.40;;;11.70;93.20;;;;;;5012185;28;20464;-72
2023/05/04 06:51:29;;;;;;;14.40;11.40;;;11.80;93.30;;;;;;5012616;28;20501;-72
2023/05/04 06:53:56;;;;;;;15.33;13.47;;;12.00;92.50;;;;;;5010924;28;20464;-69
2023/05/04 06:56:23;;;;;;;17.33;13.37;;;12.20;91.20;;;;;;5012174;28;20479;-70
2023/05/04 06:58:50;;;;;;;13.03;11.73;;;12.40;91.10;;;;;;5012161;28;20853;-70
2023/05/04 07:01:19;;;;;;;15.40;13.90;;;12.60;90.20;;;;;;5011798;28;20459;-72
2023/05/04 07:03:45;;;;;;;14.10;12.60;;;12.80;90.60;;;;;;5010845;28;20481;-70
2023/05/04 07:06:14;;;;;;;14.60;13.10;;;12.90;90.20;;;;;;5012083;28;20479;-69
2023/05/04 07:08:40;;;;;;;14.67;12.90;;;13.10;90.00;;;;;;5011763;28;20449;-69
2023/05/04 07:11:09;;;;;;;15.00;13.50;;;13.20;89.10;;;;;;5012334;28;20458;-70
2023/05/04 07:13:36;;;;;;;13.77;12.13;;;13.40;88.30;;;;;;5010549;28;20474;-72
2023/05/04 07:16:06;;;;;;;13.40;12.20;;;13.50;84.10;;;;;;5011697;28;20508;-70
2023/05/04 07:18:33;;;;;;;12.97;11.73;;;13.70;86.70;;;;;;5011841;28;20449;-70
2023/05/04 07:21:00;;;;;;;14.03;12.70;;;13.90;83.80;;;;;;5011933;28;20854;-73
2023/05/04 07:23:31;;;;;;;12.07;10.97;;;13.90;82.80;;;;;;5011327;28;20501;-70
2023/05/04 07:25:58;;;;;;;11.37;10.37;;;14.00;81.30;;;;;;5011441;28;20883;-70
2023/05/04 07:28:25;;;;;;;12.60;11.33;;;14.30;81.90;;;;;;5011237;28;20454;-70
2023/05/04 07:30:53;;;;;;;11.87;10.67;;;14.50;80.50;;;;;;5011391;28;20532;-70
2023/05/04 07:33:20;;;;;;;16.13;11.97;;;14.60;79.50;;;;;;5010168;28;20535;-70
2023/05/04 07:35:47;;;;;;;11.90;10.87;;;14.80;78.20;;;;;;5011226;28;20454;-70
2023/05/04 07:38:14;;;;;;;12.37;11.13;;;14.90;79.40;;;;;;5011002;28;20491;-70
2023/05/04 07:40:42;;;;;;;14.60;11.03;;;15.00;77.70;;;;;;5010991;28;20838;-71
2023/05/04 07:43:09;;;;;;;11.47;10.50;;;15.10;75.80;;;;;;5009593;28;20450;-70
2023/05/04 07:45:36;;;;;;;11.57;10.47;;;15.30;76.90;;;;;;5011129;28;20831;-71
2023/05/04 07:48:02;;;;;;;12.07;10.70;;;15.50;73.50;;;;;;5010946;28;20461;-70
2023/05/04 07:50:29;;;;;;;11.33;10.13;;;15.60;74.50;;;;;;5011087;28;20544;-69
2023/05/04 07:52:56;;;;;;;10.33;9.33;;;15.70;74.20;;;;;;5009861;28;20546;-70
2023/05/04 07:55:24;;;;;;;11.03;9.93;;;15.80;71.80;;;;;;5010342;28;20479;-71
2023/05/04 07:57:53;;;;;;;10.10;8.90;;;15.80;71.60;;;;;;5010635;28;20544;-72
2023/05/04 08:00:21;;;;;;;10.63;9.63;;;16.00;70.60;;;;;;5011018;28;20449;-71
2023/05/04 08:02:48;;;;;;;11.10;10.05;;;16.20;71.50;;;;;;5008547;28;20509;-71
2023/05/04 08:05:15;;;;;;;9.63;8.80;;;16.20;69.00;;;;;;5010675;28;20636;-71
2023/05/04 08:07:42;;;;;;;10.03;9.20;;;16.40;69.30;;;;;;5010859;28;20454;-71
2023/05/04 08:10:09;;;;;;;10.77;9.27;;;16.60;67.40;;;;;;5010560;28;20964;-72
2023/05/04 08:12:39;;;;;;;10.37;9.40;;;16.70;67.40;;;;;;5009610;28;20449;-70
2023/05/04 08:15:09;;;;;;;9.07;8.27;;;16.80;65.10;;;;;;5010721;28;20544;-71
2023/05/04 08:17:38;;;;;;;9.73;8.90;;;16.80;65.30;;;;;;5010445;28;20493;-73
2023/05/04 08:20:06;;;;;;;9.10;8.40;;;17.00;65.40;;;;;;5009979;28;20449;-72
2023/05/04 08:22:33;;;;;;;9.00;8.20;;;17.00;66.00;;;;;;5009172;28;20448;-72
2023/05/04 08:25:00;;;;;;;9.30;8.40;;;17.10;65.90;;;;;;5010447;28;20474;-72
2023/05/04 08:27:27;;;;;;;8.33;7.53;;;17.20;62.30;;;;;;5010298;28;20437;-73
2023/05/04 08:29:53;;;;;;;8.77;8.00;;;17.40;64.70;;;;;;5010356;28;20453;-71
2023/05/04 08:32:22;;;;;;;8.67;7.83;;;17.40;63.50;;;;;;5009829;28;20458;-71
2023/05/04 08:34:49;;;;;;;8.47;7.60;;;17.40;59.30;;;;;;5009752;28;20823;-72
2023/05/04 08:37:16;;;;;;;9.30;8.27;;;17.50;61.90;;;;;;5010238;28;20569;-72
2023/05/04 08:39:43;;;;;;;8.27;7.57;;;17.60;60.40;;;;;;5010310;28;20468;-70
2023/05/04 08:42:12;;;;;;;7.67;7.00;;;17.70;60.90;;;;;;5009957;28;20449;-71
2023/05/04 08:44:38;;;;;;;8.17;7.40;;;17.90;58.90;;;;;;5009668;28;20476;-71
2023/05/04 08:47:05;;;;;;;8.83;8.03;;;17.90;61.40;;;;;;5010580;28;20446;-71
2023/05/04 08:49:33;;;;;;;9.43;7.80;;;18.10;60.80;;;;;;5010439;28;20441;-72
2023/05/04 08:52:05;;;;;;;7.00;6.50;;;18.30;59.30;;;;;;5010838;28;20446;-68
2023/05/04 08:54:38;;;;;;;8.63;7.03;;;18.50;59.60;;;;;;5009622;28;20465;-66
2023/05/04 08:57:06;;;;;;;7.90;7.20;;;18.50;59.20;;;;;;5010544;28;20497;-66
2023/05/04 08:59:37;;;;;;;7.40;6.90;;;18.60;57.50;;;;;;5010559;28;20456;-66
2023/05/04 09:02:04;;;;;;;8.00;7.40;;;18.70;58.10;;;;;;5010477;28;20449;-67
2023/05/04 09:04:32;;;;;;;7.33;6.60;;;18.80;56.10;;;;;;5010088;28;20469;-66
2023/05/04 09:06:59;;;;;;;7.00;6.10;;;19.00;58.20;;;;;;5011325;28;20446;-66
2023/05/04 09:09:28;;;;;;;6.47;5.97;;;19.10;57.50;;;;;;5010478;28;20453;-66
2023/05/04 09:11:55;;;;;;;6.83;6.23;;;19.30;55.80;;;;;;5010304;28;20450;-67
2023/05/04 09:14:31;;;;;;;6.30;5.70;;;19.50;56.30;;;;;;5008824;28;20504;-66
2023/05/04 09:16:59;;;;;;;5.70;5.20;;;19.70;53.80;;;;;;5009874;28;20473;-66
2023/05/04 09:19:32;;;;;;;5.20;4.77;;;19.90;51.80;;;;;;5009769;28;20941;-66
2023/05/04 09:22:00;;;;;;;5.43;4.93;;;20.10;53.00;;;;;;5009890;28;20565;-67
2023/05/04 09:24:28;;;;;;;5.73;5.33;;;20.20;53.80;;;;;;5008786;28;20466;-67
2023/05/04 09:26:54;;;;;;;5.77;5.23;;;20.40;50.00;;;;;;5009865;28;20453;-66
2023/05/04 09:29:24;;;;;;;6.10;5.23;;;20.60;51.30;;;;;;5009767;28;20446;-68
2023/05/04 09:31:52;;;;;;;6.13;5.73;;;20.70;49.80;;;;;;5010809;28;20445;-66
2023/05/04 09:34:21;;;;;;;5.27;4.87;;;20.80;50.30;;;;;;5012306;28;21015;-67
2023/05/04 09:37:02;;;;;;;5.97;5.20;;;20.80;49.70;;;;;;5013707;28;20458;-67
2023/05/04 09:39:29;;;;;;;5.30;4.90;;;21.10;48.60;;;;;;5013716;28;20900;-67
2023/05/04 09:41:56;;;;;;;5.17;4.73;;;21.50;47.50;;;;;;5013400;28;20453;-67
2023/05/04 09:44:27;;;;;;;4.80;4.50;;;22.10;48.00;;;;;;5012376;28;20473;-67
2023/05/04 09:46:55;;;;;;;4.93;4.57;;;22.70;47.10;;;;;;5013468;28;20516;-67
2023/05/04 09:49:32;;;;;;;4.97;4.67;;;23.30;45.90;;;;;;5013687;28;20875;-67
2023/05/04 09:52:01;;;;;;;5.67;4.83;;;24.00;44.30;;;;;;5013318;28;20460;-67
2023/05/04 09:54:31;;;;;;;5.60;5.20;;;24.50;42.40;;;;;;5012257;28;20488;-67
2023/05/04 09:57:05;;;;;;;6.07;5.47;;;24.70;42.80;;;;;;5013624;28;20453;-67
2023/05/04 09:59:32;;;;;;;5.33;4.90;;;24.80;42.40;;;;;;5013439;28;20456;-67
2023/05/04 10:01:59;;;;;;;5.27;4.80;;;24.90;43.40;;;;;;5013163;28;20936;-69
2023/05/04 10:04:26;;;;;;;5.47;5.07;;;25.20;41.60;;;;;;5012344;28;20466;-68
2023/05/04 10:06:54;;;;;;;5.03;4.73;;;25.40;41.30;;;;;;5013302;28;20456;-68
2023/05/04 10:09:24;;;;;;;6.23;5.63;;;25.30;41.20;;;;;;5013659;28;20792;-68
2023/05/04 10:11:52;;;;;;;5.50;4.90;;;25.50;39.60;;;;;;5013370;28;20450;-67
2023/05/04 10:14:19;;;;;;;5.23;4.73;;;25.30;39.40;;;;;;5012234;28;20469;-67
2023/05/04 10:16:54;;;;;;;5.47;4.97;;;25.50;40.70;;;;;;5013300;28;20450;-67
2023/05/04 10:19:47;;;;;;;5.00;4.50;;;25.60;40.90;;;;;;5013143;28;20502;-68
2023/05/04 10:22:30;;;;;;;5.50;5.00;;;25.80;38.30;;;;;;5012796;28;20449;-66
2023/05/04 10:25:23;;;;;;;5.10;4.70;;;26.10;38.90;;;;;;5013337;28;20469;-67
2023/05/04 10:28:01;;;;;;;4.63;4.23;;;26.10;39.20;;;;;;5012742;28;20961;-67
2023/05/04 10:30:31;;;;;;;6.07;4.63;;;26.30;38.30;;;;;;5013284;28;20465;-66
2023/05/04 10:33:01;;;;;;;5.43;4.93;;;26.30;38.10;;;;;;5011945;28;20454;-68
2023/05/04 10:35:28;;;;;;;4.30;4.00;;;26.30;38.20;;;;;;5012966;28;20466;-66
2023/05/04 10:37:55;;;;;;;5.10;4.50;;;26.40;37.90;;;;;;5012388;28;20572;-67
2023/05/04 10:40:35;;;;;;;4.13;3.83;;;26.50;38.30;;;;;;5012747;28;20997;-66
2023/05/04 10:43:02;;;;;;;6.37;4.53;;;26.60;36.60;;;;;;5011104;28;20445;-67
2023/05/04 10:45:36;;;;;;;4.63;4.33;;;26.80;37.30;;;;;;5012434;28;20477;-66
2023/05/04 10:48:03;;;;;;;4.60;4.30;;;26.90;38.10;;;;;;5012479;28;20454;-66
2023/05/04 10:50:42;;;;;;;5.00;4.60;;;26.80;36.40;;;;;;5011957;28;20481;-66
2023/05/04 10:53:08;;;;;;;5.60;4.10;;;26.90;37.10;;;;;;5010742;28;20499;-66
2023/05/04 10:55:41;;;;;;;4.70;4.30;;;26.70;34.80;;;;;;5012015;28;20449;-66
2023/05/04 10:58:08;;;;;;;4.87;4.27;;;26.70;39.40;;;;;;5012016;28;20486;-66
2023/05/04 11:00:37;;;;;;;4.60;4.20;;;26.80;36.00;;;;;;5011875;28;20454;-65
2023/05/04 11:03:06;;;;;;;5.10;4.63;;;26.70;35.90;;;;;;5010814;28;20815;-65
2023/05/04 11:05:41;;;;;;;4.47;4.07;;;26.80;35.80;;;;;;5012316;28;20496;-65
2023/05/04 11:08:18;;;;;;;4.20;3.80;;;27.00;36.70;;;;;;5012130;28;21091;-63
2023/05/04 11:10:47;;;;;;;4.33;3.93;;;27.30;35.40;;;;;;5012120;28;20441;-65
2023/05/04 11:13:14;;;;;;;4.60;3.87;;;27.70;36.90;;;;;;5010871;28;21027;-65
2023/05/04 11:15:46;;;;;;;3.87;3.67;;;28.20;35.50;;;;;;5011878;28;20454;-65
2023/05/04 11:18:13;;;;;;;4.40;4.00;;;28.60;34.80;;;;;;5011837;28;20486;-65
2023/05/04 11:20:41;;;;;;;4.50;3.77;;;29.00;33.00;;;;;;4993357;28;20585;-65
2023/05/04 11:23:09;;;;;;;4.67;4.27;;;29.10;31.10;;;;;;4989309;28;20960;-65
2023/05/04 11:25:37;;;;;;;4.87;4.47;;;29.20;33.20;;;;;;4991862;28;20447;-65
2023/05/04 11:28:05;;;;;;;4.53;4.23;;;29.30;33.80;;;;;;4991576;28;20458;-65
2023/05/04 11:30:33;;;;;;;5.13;4.13;;;29.50;34.40;;;;;;4991852;28;20453;-65
2023/05/04 11:33:00;;;;;;;4.23;3.93;;;29.80;31.70;;;;;;4990538;28;20446;-65
2023/05/04 11:35:27;;;;;;;4.17;3.87;;;30.00;31.50;;;;;;4991463;28;20467;-66
2023/05/04 11:37:55;;;;;;;3.90;3.60;;;30.60;29.30;;;;;;4988359;28;20486;-66
2023/05/04 11:40:23;;;;;;;5.00;4.23;;;31.00;30.70;;;;;;4991219;28;20486;-66
2023/05/04 11:42:52;;;;;;;4.47;3.83;;;31.20;31.80;;;;;;4990327;28;20451;-65
2023/05/04 11:45:22;;;;;;;4.40;4.10;;;31.50;29.70;;;;;;4991475;28;20470;-65
2023/05/04 11:47:50;;;;;;;4.37;3.97;;;31.60;28.90;;;;;;4991067;28;20462;-66
2023/05/04 11:50:18;;;;;;;5.23;4.40;;;31.40;28.50;;;;;;4991328;28;20866;-65
2023/05/04 11:52:45;;;;;;;4.80;4.40;;;30.90;29.20;;;;;;4989989;28;20474;-67
2023/05/04 11:55:24;;;;;;;4.70;4.30;;;31.20;30.00;;;;;;4990635;28;20475;-67
2023/05/04 11:57:56;;;;;;;5.40;4.20;;;31.50;29.80;;;;;;4991126;28;21056;-66
2023/05/04 12:00:36;;;;;;;4.23;3.93;;;31.40;28.70;;;;;;4991180;28;20450;-66
2023/05/04 12:03:04;;;;;;;4.00;3.70;;;31.50;29.40;;;;;;4989974;28;20454;-66
2023/05/04 12:05:31;;;;;;;4.20;3.90;;;31.80;27.80;;;;;;4990896;28;20450;-66
2023/05/04 12:07:58;;;;;;;4.90;3.97;;;32.00;30.10;;;;;;4990652;28;20453;-66
2023/05/04 12:10:26;;;;;;;4.50;4.10;;;32.40;28.80;;;;;;4990876;28;20450;-66
2023/05/04 12:12:53;;;;;;;4.80;4.40;;;32.10;27.80;;;;;;4990016;28;20457;-67
2023/05/04 12:15:30;;;;;;;4.43;4.13;;;31.50;27.40;;;;;;4990888;28;21016;-67
2023/05/04 12:17:57;;;;;;;4.47;4.07;;;31.80;28.40;;;;;;4990857;28;20478;-66
2023/05/04 12:20:27;;;;;;;5.47;4.77;;;32.00;28.60;;;;;;4991423;28;20457;-66
2023/05/04 12:22:54;;;;;;;5.67;5.07;;;31.80;27.70;;;;;;4990122;28;20450;-66
2023/05/04 12:25:21;;;;;;;4.73;4.30;;;31.80;27.80;;;;;;4990900;28;20471;-66
2023/05/04 12:27:48;;;;;;;5.73;5.07;;;31.80;29.70;;;;;;4990685;28;20535;-66
2023/05/04 12:30:15;;;;;;;4.67;4.27;;;31.90;28.90;;;;;;4990596;28;20446;-65
2023/05/04 12:32:44;;;;;;;4.87;4.57;;;32.60;27.90;;;;;;4990031;28;20486;-67
2023/05/04 12:35:11;;;;;;;4.40;4.03;;;32.60;28.80;;;;;;5003167;28;20501;-66
2023/05/04 12:37:38;;;;;;;3.93;3.63;;;33.10;30.00;;;;;;5005515;28;20446;-66
2023/05/04 12:40:06;;;;;;;4.60;4.20;;;34.10;27.40;;;;;;4998394;28;20450;-66
2023/05/04 12:42:33;;;;;;;5.13;4.63;;;34.40;25.00;;;;;;4996192;28;20442;-66
2023/05/04 12:45:00;;;;;;;5.17;4.77;;;34.20;27.40;;;;;;4998469;28;20861;-68
2023/05/04 12:47:27;;;;;;;4.97;4.53;;;33.90;26.40;;;;;;4998824;28;20520;-67